Time;durP1;ratioP1;P1;durP2;ratioP2;P2;SDS_P1;SDS_P2;PMS_P1;PMS_P2;Temp;Humidity;BMP_temperature;BMP_pressure;BME280_temperature;BME280_humidity;BME280_pressure;Samples;Min_cycle;Max_cycle;Signal;HPM_P1;HPM_P2
2022/02/08 00:21:48;;;;;;;17.17;14.25;;;;;;;;;;4390336;28;20533;-61
2022/02/08 00:24:14;;;;;;;17.25;13.77;;;;;;;;;;4215622;34;20186;-62
2022/02/08 00:26:40;;;;;;;14.45;12.68;;;;;;;;;;4218271;34;20112;-62
2022/02/08 00:29:07;;;;;;;15.50;12.70;;;;;;;;;;4218568;34;20124;-62
2022/02/08 00:31:33;;;;;;;17.42;13.27;;;;;;;;;;4214406;34;20612;-62
2022/02/08 00:33:59;;;;;;;13.13;11.73;;;;;;;;;;4204617;34;20556;-64
2022/02/08 00:36:25;;;;;;;16.48;14.15;;;;;;;;;;4204282;34;20193;-65
2022/02/08 00:38:52;;;;;;;14.48;11.95;;;;;;;;;;4204014;34;20128;-65
2022/02/08 00:41:18;;;;;;;14.45;12.95;;;;;;;;;;4204388;34;20592;-65
2022/02/08 00:46:32;;;;;;;15.48;12.37;;;;;;;;;;4204392;34;20124;-64
2022/02/08 00:49:01;;;;;;;15.48;13.40;;;;;;;;;;4204561;34;20517;-65
2022/02/08 00:51:30;;;;;;;15.18;12.85;;;;;;;;;;4204457;34;20290;-65
2022/02/08 00:53:56;;;;;;;15.77;12.40;;;;;;;;;;4191610;34;20114;-65
2022/02/08 00:56:22;;;;;;;13.60;12.10;;;;;;;;;;4209949;34;20206;-62
2022/02/08 00:58:48;;;;;;;13.40;11.98;;;;;;;;;;4218315;34;20201;-62
2022/02/08 01:01:14;;;;;;;13.10;11.70;;;;;;;;;;4218242;34;20108;-62
2022/02/08 01:03:42;;;;;;;13.20;11.82;;;;;;;;;;4218247;34;20113;-62
2022/02/08 01:06:08;;;;;;;14.20;12.80;;;;;;;;;;4218121;34;20098;-62
2022/02/08 01:08:37;;;;;;;15.40;13.70;;;;;;;;;;4218219;34;20145;-61
2022/02/08 01:11:05;;;;;;;13.05;11.65;;;;;;;;;;4218109;34;20208;-61
2022/02/08 01:13:31;;;;;;;13.45;11.82;;;;;;;;;;4218414;34;20113;-61
2022/02/08 01:15:58;;;;;;;12.75;11.30;;;;;;;;;;4218027;34;20139;-63
2022/02/08 01:18:24;;;;;;;13.68;11.40;;;;;;;;;;4218084;34;20117;-66
2022/02/08 01:20:51;;;;;;;13.60;11.75;;;;;;;;;;4217974;34;20109;-66
2022/02/08 01:23:17;;;;;;;13.73;12.02;;;;;;;;;;4217957;34;20137;-66
2022/02/08 01:25:51;;;;;;;14.75;12.57;;;;;;;;;;4218035;34;20192;-66
2022/02/08 01:33:41;;;;;;;14.43;11.98;;;;;;;;;;4217933;34;20093;-66
2022/02/08 01:47:05;;;;;;;13.07;11.68;;;;;;;;;;4217716;34;20204;-65
2022/02/08 01:49:38;;;;;;;14.52;11.70;;;;;;;;;;4203950;34;20119;-65
2022/02/08 01:52:06;;;;;;;14.00;12.60;;;;;;;;;;4218173;34;21039;-65
2022/02/08 01:54:32;;;;;;;15.07;12.10;;;;;;;;;;4219882;34;20117;-67
2022/02/08 01:56:58;;;;;;;14.68;12.13;;;;;;;;;;4219673;34;20209;-65
2022/02/08 01:59:25;;;;;;;13.90;12.07;;;;;;;;;;4219877;34;20127;-65
2022/02/08 02:01:51;;;;;;;12.40;11.15;;;;;;;;;;4219770;34;20549;-68
2022/02/08 02:04:17;;;;;;;16.08;10.48;;;;;;;;;;4219125;34;20133;-66
2022/02/08 02:06:43;;;;;;;13.62;11.48;;;;;;;;;;4219556;34;20113;-66
2022/02/08 02:09:09;;;;;;;13.80;11.07;;;;;;;;;;4219774;34;20109;-67
2022/02/08 02:11:36;;;;;;;14.70;9.88;;;;;;;;;;4219567;34;20546;-66
2022/02/08 02:14:02;;;;;;;11.73;10.50;;;;;;;;;;4219756;34;20218;-66
2022/02/08 02:16:47;;;;;;;11.98;10.48;;;;;;;;;;4219543;34;20129;-65
2022/02/08 02:19:13;;;;;;;11.98;8.02;;;;;;;;;;4219766;34;20512;-66
2022/02/08 02:21:39;;;;;;;14.73;8.70;;;;;;;;;;4219560;34;20505;-65
2022/02/08 02:24:06;;;;;;;10.82;9.57;;;;;;;;;;4226232;33;20116;-65
2022/02/08 02:26:32;;;;;;;12.82;8.63;;;;;;;;;;4227682;33;20646;-65
2022/02/08 02:28:58;;;;;;;11.35;8.27;;;;;;;;;;4212412;34;20109;-64
2022/02/08 02:31:24;;;;;;;14.65;8.52;;;;;;;;;;4215217;34;20109;-65
2022/02/08 02:33:50;;;;;;;7.40;6.70;;;;;;;;;;4216260;34;20188;-66
2022/02/08 02:36:16;;;;;;;8.73;7.57;;;;;;;;;;4219450;34;20124;-66
2022/02/08 02:38:42;;;;;;;9.93;8.93;;;;;;;;;;4219457;34;20196;-70
2022/02/08 02:41:09;;;;;;;10.32;8.63;;;;;;;;;;4207186;34;20105;-74
2022/02/08 02:43:35;;;;;;;8.52;7.62;;;;;;;;;;4206293;34;20585;-73
2022/02/08 02:46:03;;;;;;;9.57;7.85;;;;;;;;;;4179245;34;20122;-74
2022/02/08 02:48:29;;;;;;;9.98;8.23;;;;;;;;;;4214174;34;20177;-71
2022/02/08 02:50:55;;;;;;;9.13;8.20;;;;;;;;;;4210825;34;20121;-74
2022/02/08 02:53:23;;;;;;;10.40;9.32;;;;;;;;;;4211297;34;20097;-75
2022/02/08 02:55:50;;;;;;;9.75;8.75;;;;;;;;;;4199530;34;20113;-70
2022/02/08 02:58:17;;;;;;;9.60;8.60;;;;;;;;;;4211184;34;20127;-66
2022/02/08 03:00:51;;;;;;;9.60;8.60;;;;;;;;;;4210314;34;20094;-62
2022/02/08 03:19:24;;;;;;;12.23;10.63;;;;;;;;;;4219237;34;20115;-76
2022/02/08 03:21:50;;;;;;;9.20;8.30;;;;;;;;;;4194335;34;20217;-69
2022/02/08 03:24:16;;;;;;;9.48;8.20;;;;;;;;;;4218905;34;20189;-71
2022/02/08 03:26:42;;;;;;;10.80;8.90;;;;;;;;;;4211120;34;20508;-71
2022/02/08 03:29:08;;;;;;;10.40;8.70;;;;;;;;;;4189907;34;20113;-67
2022/02/08 03:31:34;;;;;;;9.25;7.68;;;;;;;;;;4217648;34;20228;-70
2022/02/08 03:34:00;;;;;;;8.90;8.00;;;;;;;;;;4218008;34;20177;-70
2022/02/08 03:36:26;;;;;;;8.60;7.80;;;;;;;;;;4218852;34;20135;-75
2022/02/08 03:39:10;;;;;;;8.75;7.85;;;;;;;;;;4192500;34;20232;-67
2022/02/08 03:41:42;;;;;;;7.65;6.85;;;;;;;;;;4205612;34;20462;-67
2022/02/08 03:44:15;;;;;;;7.72;6.93;;;;;;;;;;4217577;34;20160;-66
2022/02/08 03:46:42;;;;;;;8.38;7.43;;;;;;;;;;4181432;34;20140;-66
2022/02/08 03:49:08;;;;;;;10.43;8.15;;;;;;;;;;4204179;34;20472;-66
2022/02/08 03:51:47;;;;;;;8.15;7.20;;;;;;;;;;4217180;34;20132;-66
2022/02/08 03:54:14;;;;;;;7.90;7.10;;;;;;;;;;4217921;34;20189;-66
2022/02/08 03:56:40;;;;;;;8.35;7.53;;;;;;;;;;4217738;34;20125;-65
2022/02/08 03:59:06;;;;;;;7.50;6.68;;;;;;;;;;4216487;34;21122;-66
2022/02/08 04:07:03;;;;;;;7.43;6.68;;;;;;;;;;4217576;34;20134;-65
2022/02/08 04:09:29;;;;;;;8.98;7.65;;;;;;;;;;4216671;34;20117;-66
2022/02/08 04:16:53;;;;;;;9.10;8.02;;;;;;;;;;4216542;34;20109;-66
2022/02/08 04:19:32;;;;;;;8.57;7.68;;;;;;;;;;4203784;34;20121;-65
2022/02/08 04:38:56;;;;;;;5.05;4.55;;;;;;;;;;4218409;34;20109;-67
2022/02/08 04:41:31;;;;;;;4.68;4.18;;;;;;;;;;4218536;34;20505;-66
2022/02/08 04:44:13;;;;;;;4.72;3.97;;;;;;;;;;4218424;34;20619;-66
2022/02/08 04:46:49;;;;;;;5.15;4.65;;;;;;;;;;4218358;34;20197;-66
2022/02/08 04:49:15;;;;;;;5.20;4.70;;;;;;;;;;4218448;34;20105;-66
2022/02/08 04:51:47;;;;;;;4.72;4.22;;;;;;;;;;4218357;34;20209;-66
2022/02/08 04:54:27;;;;;;;4.85;4.40;;;;;;;;;;4205689;34;20439;-66
2022/02/08 05:45:25;;;;;;;4.70;4.20;;;;;;;;;;4221691;33;20092;-80
2022/02/08 05:47:54;;;;;;;4.32;3.87;;;;;;;;;;4198508;33;20664;-79
2022/02/08 05:50:40;;;;;;;5.37;4.22;;;;;;;;;;4232401;33;20097;-80
2022/02/08 05:55:51;;;;;;;5.50;4.53;;;;;;;;;;4232302;33;20422;-81
2022/02/08 05:58:16;;;;;;;5.35;4.22;;;;;;;;;;4219536;33;20128;-78
2022/02/08 06:00:43;;;;;;;5.53;4.35;;;;;;;;;;4232504;33;20120;-80
2022/02/08 06:03:09;;;;;;;6.03;4.45;;;;;;;;;;4219789;33;20097;-81
2022/02/08 06:05:35;;;;;;;5.72;4.55;;;;;;;;;;4232878;33;20418;-81
2022/02/08 06:08:01;;;;;;;5.57;4.53;;;;;;;;;;4231628;33;20503;-81
2022/02/08 06:10:29;;;;;;;5.15;4.50;;;;;;;;;;4206895;33;20525;-80
2022/02/08 06:12:56;;;;;;;6.55;4.50;;;;;;;;;;4207535;33;20810;-80
2022/02/08 06:15:24;;;;;;;5.90;4.80;;;;;;;;;;4218368;33;20118;-81
2022/02/08 06:17:52;;;;;;;4.78;4.28;;;;;;;;;;4207413;33;20433;-80
2022/02/08 06:20:19;;;;;;;5.12;4.62;;;;;;;;;;4231335;33;20105;-79
2022/02/08 06:22:45;;;;;;;5.32;4.65;;;;;;;;;;4231599;33;20089;-80
2022/02/08 06:25:14;;;;;;;5.47;4.85;;;;;;;;;;4231432;33;20197;-81
2022/02/08 06:27:41;;;;;;;5.40;4.75;;;;;;;;;;4231694;33;20092;-81
2022/02/08 06:30:08;;;;;;;5.12;4.53;;;;;;;;;;4218600;33;20194;-82
2022/02/08 06:32:36;;;;;;;5.30;4.45;;;;;;;;;;4206937;33;20556;-80
2022/02/08 06:35:08;;;;;;;5.40;4.20;;;;;;;;;;4218643;33;20129;-75
2022/02/08 06:37:37;;;;;;;6.12;4.30;;;;;;;;;;4220541;33;20125;-81
2022/02/08 06:40:04;;;;;;;4.90;4.40;;;;;;;;;;4220747;33;20100;-75
2022/02/08 06:42:30;;;;;;;4.78;4.30;;;;;;;;;;4233643;33;20093;-67
2022/02/08 06:44:56;;;;;;;5.32;4.50;;;;;;;;;;4233241;33;20204;-68
2022/02/08 06:47:22;;;;;;;5.28;4.75;;;;;;;;;;4233554;33;20097;-77
2022/02/08 06:49:49;;;;;;;5.30;4.55;;;;;;;;;;4233551;33;20112;-70
2022/02/08 06:52:15;;;;;;;5.10;4.60;;;;;;;;;;4233322;33;20246;-70
2022/02/08 06:54:41;;;;;;;4.80;4.30;;;;;;;;;;4233672;33;20581;-70
2022/02/08 06:57:08;;;;;;;5.00;4.50;;;;;;;;;;4233408;33;20133;-69
2022/02/08 06:59:37;;;;;;;4.40;4.00;;;;;;;;;;4220309;33;20101;-69
2022/02/08 07:02:04;;;;;;;5.12;4.40;;;;;;;;;;4209471;33;20204;-71
2022/02/08 07:04:31;;;;;;;5.40;4.90;;;;;;;;;;4220564;33;20097;-71
2022/02/08 07:06:57;;;;;;;5.15;4.30;;;;;;;;;;4233415;33;20532;-69
2022/02/08 07:09:24;;;;;;;5.20;4.25;;;;;;;;;;4233538;33;20100;-71
2022/02/08 07:11:51;;;;;;;6.07;5.47;;;;;;;;;;4233108;33;20108;-70
2022/02/08 07:14:17;;;;;;;6.78;6.03;;;;;;;;;;4233132;33;20532;-71
2022/02/08 07:16:45;;;;;;;8.27;7.20;;;;;;;;;;4233144;33;20156;-71
2022/02/08 07:19:11;;;;;;;5.30;4.80;;;;;;;;;;4220135;33;20107;-71
2022/02/08 07:21:38;;;;;;;5.35;4.78;;;;;;;;;;4232835;33;20209;-72
2022/02/08 07:24:05;;;;;;;5.22;4.72;;;;;;;;;;4232806;33;20185;-73
2022/02/08 07:26:31;;;;;;;4.60;4.20;;;;;;;;;;4233456;33;20077;-79
2022/02/08 07:28:57;;;;;;;5.62;4.80;;;;;;;;;;4185759;33;20101;-80
2022/02/08 07:31:33;;;;;;;6.12;4.62;;;;;;;;;;4197408;33;20114;-80
2022/02/08 07:34:10;;;;;;;;;;;;;;;;;;4210124;33;20117;-76
2022/02/08 07:36:46;;;;;;;5.20;4.70;;;;;;;;;;4233060;33;19992;-75
2022/02/08 07:39:22;;;;;;;5.37;4.78;;;;;;;;;;4219908;33;20199;-77
2022/02/08 07:41:48;;;;;;;5.70;4.93;;;;;;;;;;4233235;33;20114;-78
2022/02/08 07:44:15;;;;;;;5.00;4.15;;;;;;;;;;4220513;33;20115;-82
2022/02/08 07:46:41;;;;;;;5.07;4.57;;;;;;;;;;4220466;33;20120;-80
2022/02/08 07:49:07;;;;;;;5.43;4.93;;;;;;;;;;4233179;33;20573;-82
2022/02/08 07:51:36;;;;;;;7.18;5.50;;;;;;;;;;4232866;33;20140;-81
2022/02/08 07:54:04;;;;;;;5.40;4.90;;;;;;;;;;4220111;33;20115;-82
2022/02/08 07:56:30;;;;;;;5.53;5.03;;;;;;;;;;4220101;33;20624;-81
2022/02/08 07:58:56;;;;;;;5.53;4.93;;;;;;;;;;4233156;33;20121;-82
2022/02/08 08:01:22;;;;;;;5.40;4.90;;;;;;;;;;4232883;33;20139;-78
2022/02/08 08:03:48;;;;;;;5.47;4.97;;;;;;;;;;4232980;33;20117;-74
2022/02/08 08:06:16;;;;;;;5.45;4.95;;;;;;;;;;4219833;33;20200;-77
2022/02/08 08:08:43;;;;;;;5.12;4.55;;;;;;;;;;4233827;33;20555;-81
2022/02/08 08:11:15;;;;;;;5.07;4.57;;;;;;;;;;4197744;33;20108;-81
2022/02/08 08:13:48;;;;;;;5.70;4.78;;;;;;;;;;4232902;33;20211;-69
2022/02/08 08:16:21;;;;;;;5.10;4.60;;;;;;;;;;4219819;33;20111;-71
2022/02/08 08:18:59;;;;;;;5.78;5.28;;;;;;;;;;4232813;33;20120;-71
2022/02/08 08:21:26;;;;;;;5.80;5.30;;;;;;;;;;4232415;33;20102;-72
2022/02/08 08:23:52;;;;;;;5.93;5.32;;;;;;;;;;4232695;33;20102;-71
2022/02/08 08:26:19;;;;;;;5.78;5.18;;;;;;;;;;4219583;33;20098;-71
2022/02/08 08:28:45;;;;;;;5.95;5.35;;;;;;;;;;4232708;33;20112;-70
2022/02/08 08:31:11;;;;;;;5.37;4.87;;;;;;;;;;4232556;33;20120;-72
2022/02/08 08:33:38;;;;;;;6.03;5.43;;;;;;;;;;4218071;33;20215;-73
2022/02/08 08:36:05;;;;;;;6.20;5.60;;;;;;;;;;4232718;33;20549;-72
2022/02/08 08:38:33;;;;;;;5.97;5.37;;;;;;;;;;4219489;33;20120;-72
2022/02/08 08:41:08;;;;;;;6.70;6.00;;;;;;;;;;4232468;33;20207;-72
2022/02/08 08:53:55;;;;;;;8.02;7.22;;;;;;;;;;4232728;33;20461;-74
2022/02/08 08:56:21;;;;;;;7.45;6.75;;;;;;;;;;4219572;33;20116;-73
2022/02/08 08:58:47;;;;;;;8.30;7.47;;;;;;;;;;4231578;33;20208;-74
2022/02/08 09:01:14;;;;;;;8.07;7.28;;;;;;;;;;4232256;33;20124;-72
2022/02/08 09:03:41;;;;;;;8.10;7.30;;;;;;;;;;4232342;33;20105;-71
2022/02/08 09:06:08;;;;;;;7.62;6.80;;;;;;;;;;4232072;33;20147;-70
2022/02/08 09:08:38;;;;;;;8.82;7.85;;;;;;;;;;4230566;33;20113;-71
2022/02/08 09:11:15;;;;;;;7.90;7.10;;;;;;;;;;4230919;33;20223;-70
2022/02/08 09:13:48;;;;;;;8.02;6.72;;;;;;;;;;4220085;33;20200;-72
2022/02/08 09:16:28;;;;;;;7.43;6.43;;;;;;;;;;4219872;33;20124;-73
2022/02/08 09:29:35;;;;;;;7.00;6.30;;;;;;;;;;4199045;33;20133;-72
2022/02/08 09:32:11;;;;;;;6.15;5.55;;;;;;;;;;4220458;33;20097;-73
2022/02/08 09:34:41;;;;;;;6.57;5.87;;;;;;;;;;4218906;33;20215;-72
2022/02/08 09:37:11;;;;;;;7.15;6.00;;;;;;;;;;4230546;33;20217;-73
2022/02/08 09:39:38;;;;;;;5.90;5.30;;;;;;;;;;4230619;33;20112;-72
2022/02/08 09:42:05;;;;;;;5.80;5.25;;;;;;;;;;4217599;33;20144;-72
2022/02/08 09:44:34;;;;;;;5.95;5.30;;;;;;;;;;4205982;33;20125;-70
2022/02/08 09:47:01;;;;;;;5.90;5.30;;;;;;;;;;4205950;33;20140;-77
2022/02/08 09:49:28;;;;;;;6.60;5.90;;;;;;;;;;4230579;33;20120;-73
2022/02/08 09:51:56;;;;;;;6.45;5.57;;;;;;;;;;4218856;33;20117;-72
2022/02/08 09:54:23;;;;;;;6.60;5.90;;;;;;;;;;4218798;33;20092;-74
2022/02/08 09:56:49;;;;;;;5.85;4.90;;;;;;;;;;4232123;33;20192;-73
2022/02/08 09:59:15;;;;;;;6.82;6.12;;;;;;;;;;4231952;33;20205;-72
2022/02/08 10:01:55;;;;;;;6.53;5.82;;;;;;;;;;4218535;33;20110;-74
2022/02/08 10:04:21;;;;;;;7.20;6.03;;;;;;;;;;4207275;33;20096;-70
2022/02/08 10:06:47;;;;;;;6.43;5.82;;;;;;;;;;4231698;33;20209;-69
2022/02/08 10:09:13;;;;;;;5.57;4.97;;;;;;;;;;4232001;33;20105;-68
2022/02/08 10:11:44;;;;;;;6.75;6.05;;;;;;;;;;4220686;33;20104;-66
2022/02/08 10:14:22;;;;;;;6.53;5.75;;;;;;;;;;4233773;33;20132;-66
2022/02/08 10:22:18;;;;;;;7.57;6.32;;;;;;;;;;4234081;33;20136;-69
2022/02/08 10:24:49;;;;;;;7.68;6.70;;;;;;;;;;4219136;33;20132;-69
2022/02/08 10:27:45;;;;;;;7.25;6.40;;;;;;;;;;4219218;33;20192;-70
2022/02/08 10:30:29;;;;;;;10.25;8.00;;;;;;;;;;4222572;33;20085;-70
2022/02/08 10:38:24;;;;;;;9.98;6.60;;;;;;;;;;4222612;33;20102;-73
2022/02/08 10:40:55;;;;;;;8.07;7.20;;;;;;;;;;4220237;33;20131;-70
2022/02/08 10:43:21;;;;;;;7.87;6.80;;;;;;;;;;4233248;33;20192;-73
2022/02/08 10:45:47;;;;;;;7.82;6.93;;;;;;;;;;4204570;34;20704;-62
2022/02/08 10:48:23;;;;;;;9.98;7.28;;;;;;;;;;4206594;34;20117;-63
2022/02/08 10:50:56;;;;;;;8.68;7.40;;;;;;;;;;4206587;34;20140;-63
2022/02/08 10:53:25;;;;;;;8.65;6.70;;;;;;;;;;4206960;34;20186;-63
2022/02/08 10:56:08;;;;;;;8.57;6.75;;;;;;;;;;4181918;34;20177;-62
2022/02/08 10:58:43;;;;;;;7.57;6.78;;;;;;;;;;4169775;34;20106;-63
2022/02/08 11:01:18;;;;;;;9.15;7.15;;;;;;;;;;4193954;34;20133;-63
2022/02/08 11:06:25;;;;;;;9.38;7.40;;;;;;;;;;4169905;34;20531;-62
2022/02/08 11:16:58;;;;;;;7.18;6.47;;;;;;;;;;4181482;34;20189;-62
2022/02/08 11:19:39;;;;;;;;;;;;;;;;;;4205771;34;20507;-66
2022/02/08 11:22:23;;;;;;;7.15;6.45;;;;;;;;;;4204904;34;20125;-65
2022/02/08 11:24:56;;;;;;;7.60;6.78;;;;;;;;;;4170421;34;20182;-67
2022/02/08 11:27:23;;;;;;;8.95;7.65;;;;;;;;;;4181596;34;20193;-68
2022/02/08 11:30:00;;;;;;;8.23;7.25;;;;;;;;;;4169192;34;20181;-67
2022/02/08 11:32:40;;;;;;;8.70;7.60;;;;;;;;;;4192782;34;20117;-66
2022/02/08 11:46:31;;;;;;;10.95;9.18;;;;;;;;;;4192324;34;20132;-67
2022/02/08 11:59:52;;;;;;;12.50;10.52;;;;;;;;;;4218575;34;20097;-63
2022/02/08 12:07:53;;;;;;;13.30;10.93;;;;;;;;;;4208584;34;20096;-70
2022/02/08 12:55:06;;;;;;;13.75;11.60;;;;;;;;;;4217987;34;20097;-63
2022/02/08 12:57:04;;;;;;;11.27;10.07;;;;;;;;;;4211606;34;20181;-63
2022/02/08 13:04:50;;;;;;;12.85;11.02;;;;;;;;;;4217693;34;20151;-64
2022/02/08 13:19:34;;;;;;;10.77;9.75;;;;;;;;;;4198129;34;20455;-67
2022/02/08 14:07:59;;;;;;;13.82;12.43;;;;;;;;;;4205766;34;20605;-62
2022/02/08 14:10:46;;;;;;;14.90;12.43;;;;;;;;;;4205668;34;20109;-62
2022/02/08 14:19:27;;;;;;;10.90;9.80;;;;;;;;;;4217404;34;20145;-62
2022/02/08 14:22:13;;;;;;;11.90;10.70;;;;;;;;;;4233478;33;20221;-61
2022/02/08 14:30:24;;;;;;;10.00;8.68;;;;;;;;;;4233676;33;20101;-61
2022/02/08 15:10:20;;;;;;;9.95;8.98;;;;;;;;;;4208758;34;20149;-62
2022/02/08 15:12:56;;;;;;;9.90;8.90;;;;;;;;;;4203225;34;20117;-61
2022/02/08 15:15:38;;;;;;;11.05;9.95;;;;;;;;;;4205595;34;20141;-62
2022/02/08 15:18:04;;;;;;;9.98;8.93;;;;;;;;;;4203255;34;20213;-61
2022/02/08 15:20:30;;;;;;;10.60;9.52;;;;;;;;;;4203896;34;20725;-66
2022/02/08 15:22:58;;;;;;;9.60;8.68;;;;;;;;;;4180850;34;20197;-59
2022/02/08 15:25:27;;;;;;;10.52;9.52;;;;;;;;;;4204898;34;20106;-60
2022/02/08 15:27:53;;;;;;;11.77;10.50;;;;;;;;;;4205215;34;20221;-59
2022/02/08 15:30:19;;;;;;;10.43;9.45;;;;;;;;;;4204865;34;20098;-61
2022/02/08 15:32:46;;;;;;;10.70;9.68;;;;;;;;;;4204938;34;20111;-60
2022/02/08 15:35:12;;;;;;;10.35;9.43;;;;;;;;;;4204924;34;20116;-59
2022/02/08 15:37:38;;;;;;;11.70;10.50;;;;;;;;;;4204840;34;20194;-60
2022/02/08 15:40:09;;;;;;;11.70;10.52;;;;;;;;;;4204715;34;20117;-60
2022/02/08 15:42:39;;;;;;;10.00;9.02;;;;;;;;;;4205005;34;20160;-60
2022/02/08 15:45:15;;;;;;;9.98;8.98;;;;;;;;;;4204720;34;20093;-60
2022/02/08 15:47:41;;;;;;;9.40;8.40;;;;;;;;;;4205131;34;20190;-60
2022/02/08 15:50:14;;;;;;;10.13;9.13;;;;;;;;;;4204389;34;20129;-60
2022/02/08 15:55:30;;;;;;;9.73;8.80;;;;;;;;;;4200718;34;20160;-60
2022/02/08 15:58:19;;;;;;;10.60;9.35;;;;;;;;;;4218851;34;20188;-60
2022/02/08 16:09:23;;;;;;;9.73;6.32;;;;;;;;;;4211982;34;20527;-67
2022/02/08 16:12:01;;;;;;;11.35;6.25;;;;;;;;;;4218682;34;20113;-67
2022/02/08 16:17:15;;;;;;;9.13;5.60;;;;;;;;;;4232629;33;20128;-65
2022/02/08 16:24:56;;;;;;;9.40;6.07;;;;;;;;;;4219528;33;20105;-66
2022/02/08 16:32:57;;;;;;;8.82;7.93;;;;;;;;;;4231784;33;20211;-61
2022/02/08 17:01:50;;;;;;;12.40;11.12;;;;;;;;;;4232325;33;20105;-67
2022/02/08 17:04:17;;;;;;;12.50;10.63;;;;;;;;;;4223315;33;20226;-65
2022/02/08 17:06:43;;;;;;;9.75;8.70;;;;;;;;;;4217749;34;20148;-65
2022/02/08 17:09:16;;;;;;;10.35;9.35;;;;;;;;;;4204705;34;20748;-66
2022/02/08 17:46:41;;;;;;;11.48;10.35;;;;;;;;;;4203904;34;20184;-61
2022/02/08 17:49:07;;;;;;;10.32;9.32;;;;;;;;;;4204047;34;20140;-63
2022/02/08 17:51:33;;;;;;;9.73;8.82;;;;;;;;;;4204828;34;20517;-62
2022/02/08 17:53:59;;;;;;;9.70;8.70;;;;;;;;;;4207579;34;20140;-63
2022/02/08 17:56:25;;;;;;;10.43;9.32;;;;;;;;;;4212316;34;20114;-64
2022/02/08 17:58:52;;;;;;;10.48;9.43;;;;;;;;;;4213522;34;20463;-63
2022/02/08 18:01:19;;;;;;;11.02;9.93;;;;;;;;;;4213670;34;20141;-65
2022/02/08 18:03:45;;;;;;;10.13;9.13;;;;;;;;;;4212648;34;20566;-64
2022/02/08 18:06:11;;;;;;;10.50;9.40;;;;;;;;;;4210508;34;20129;-64
2022/02/08 18:08:38;;;;;;;10.63;9.63;;;;;;;;;;4210406;34;20182;-65
2022/02/08 18:11:04;;;;;;;10.25;9.25;;;;;;;;;;4209686;34;20097;-65
2022/02/08 18:13:33;;;;;;;10.68;9.05;;;;;;;;;;4211342;34;20113;-64
2022/02/08 18:15:59;;;;;;;10.02;8.90;;;;;;;;;;4200192;34;20506;-64
2022/02/08 18:18:29;;;;;;;10.00;9.00;;;;;;;;;;4210886;34;20552;-64
2022/02/08 18:21:08;;;;;;;9.52;8.52;;;;;;;;;;4209916;34;20093;-62
2022/02/08 18:28:47;;;;;;;9.25;8.35;;;;;;;;;;4209866;34;20462;-62
2022/02/08 18:52:00;;;;;;;8.52;7.70;;;;;;;;;;4199946;34;20454;-63
2022/02/08 19:09:45;;;;;;;8.43;7.62;;;;;;;;;;4210042;34;20088;-62
2022/02/08 19:12:18;;;;;;;8.35;7.55;;;;;;;;;;4205386;34;20136;-62
2022/02/08 19:20:00;;;;;;;8.63;7.35;;;;;;;;;;4211323;33;20125;-62
2022/02/08 19:22:27;;;;;;;8.88;8.07;;;;;;;;;;4199699;34;20125;-62
2022/02/08 19:24:53;;;;;;;8.88;8.07;;;;;;;;;;4207366;34;20510;-62
2022/02/08 19:27:20;;;;;;;8.48;7.68;;;;;;;;;;4205336;34;20126;-62
2022/02/08 19:29:47;;;;;;;8.80;7.90;;;;;;;;;;4205515;34;20097;-64
2022/02/08 19:32:13;;;;;;;8.75;7.87;;;;;;;;;;4205053;34;20114;-63
2022/02/08 19:34:41;;;;;;;8.18;7.37;;;;;;;;;;4205281;34;20117;-63
2022/02/08 19:37:10;;;;;;;8.70;7.80;;;;;;;;;;4205090;34;20126;-63
2022/02/08 19:39:39;;;;;;;9.70;8.70;;;;;;;;;;4205282;34;20450;-64
2022/02/08 19:42:06;;;;;;;8.60;7.80;;;;;;;;;;4204681;34;20220;-64
2022/02/08 19:44:32;;;;;;;8.63;7.82;;;;;;;;;;4205130;34;20181;-64
2022/02/08 19:46:59;;;;;;;8.73;7.93;;;;;;;;;;4205165;34;20117;-64
2022/02/08 19:49:26;;;;;;;9.05;8.13;;;;;;;;;;4205122;34;20097;-64
2022/02/08 19:51:52;;;;;;;9.60;8.70;;;;;;;;;;4205127;34;20112;-64
2022/02/08 19:54:23;;;;;;;9.35;8.45;;;;;;;;;;4205137;34;20197;-64
2022/02/08 19:56:58;;;;;;;10.55;9.45;;;;;;;;;;4216068;34;20115;-64
2022/02/08 19:59:33;;;;;;;10.55;9.30;;;;;;;;;;4218931;34;20608;-64
2022/02/08 20:02:01;;;;;;;9.60;8.55;;;;;;;;;;4218966;34;20092;-64
2022/02/08 20:04:27;;;;;;;9.75;8.75;;;;;;;;;;4218893;34;20187;-63
2022/02/08 20:06:57;;;;;;;11.00;9.82;;;;;;;;;;4218793;34;20118;-63
2022/02/08 20:09:25;;;;;;;10.48;9.38;;;;;;;;;;4218901;34;20451;-63
2022/02/08 20:11:51;;;;;;;10.80;9.70;;;;;;;;;;4218840;34;20105;-62
2022/02/08 20:14:17;;;;;;;10.60;9.15;;;;;;;;;;4220971;33;20132;-62
2022/02/08 20:16:44;;;;;;;11.02;9.70;;;;;;;;;;4232831;33;20457;-62
2022/02/08 20:19:12;;;;;;;11.57;10.38;;;;;;;;;;4232794;33;20446;-63
2022/02/08 20:21:38;;;;;;;11.93;10.60;;;;;;;;;;4232549;33;20474;-62
2022/02/08 20:24:08;;;;;;;11.48;10.20;;;;;;;;;;4232770;33;20117;-63
2022/02/08 20:29:09;;;;;;;13.20;11.47;;;;;;;;;;4219543;33;20193;-63
2022/02/08 20:31:35;;;;;;;13.27;11.60;;;;;;;;;;4218412;34;20612;-62
2022/02/08 20:34:01;;;;;;;12.90;11.48;;;;;;;;;;4218722;34;20221;-63
2022/02/08 20:36:27;;;;;;;13.68;10.88;;;;;;;;;;4218395;34;20101;-63
2022/02/08 20:38:53;;;;;;;13.05;11.45;;;;;;;;;;4218849;34;20137;-64
2022/02/08 20:41:20;;;;;;;13.50;11.48;;;;;;;;;;4218414;34;20216;-64
2022/02/08 20:43:47;;;;;;;13.13;11.35;;;;;;;;;;4218620;34;20530;-64
2022/02/08 20:46:15;;;;;;;12.57;10.63;;;;;;;;;;4218538;34;20109;-64
2022/02/08 20:48:42;;;;;;;12.63;11.32;;;;;;;;;;4218556;34;20102;-64
2022/02/08 20:51:08;;;;;;;11.70;10.45;;;;;;;;;;4218307;34;20128;-64
2022/02/08 20:53:38;;;;;;;11.95;10.38;;;;;;;;;;4217879;34;20122;-64
2022/02/08 20:56:10;;;;;;;12.77;11.40;;;;;;;;;;4218015;34;20137;-63
2022/02/08 20:58:53;;;;;;;12.45;10.52;;;;;;;;;;4218470;34;20101;-63
2022/02/08 21:01:20;;;;;;;12.77;10.75;;;;;;;;;;4218312;34;20220;-62
2022/02/08 21:06:21;;;;;;;12.07;10.60;;;;;;;;;;4218602;34;20098;-63
2022/02/08 21:08:49;;;;;;;12.10;10.80;;;;;;;;;;4218313;34;20129;-63
2022/02/08 21:11:15;;;;;;;12.80;11.00;;;;;;;;;;4218271;34;20118;-63
2022/02/08 21:16:08;;;;;;;13.32;11.35;;;;;;;;;;4218222;34;20112;-63
2022/02/08 21:18:35;;;;;;;11.52;10.32;;;;;;;;;;4218287;34;20125;-63
2022/02/08 21:21:01;;;;;;;12.15;10.85;;;;;;;;;;4218052;34;20169;-63
2022/02/08 21:23:28;;;;;;;13.05;11.70;;;;;;;;;;4218180;34;20116;-62
2022/02/08 21:25:54;;;;;;;12.90;11.12;;;;;;;;;;4218061;34;20228;-63
2022/02/08 21:28:45;;;;;;;12.05;10.40;;;;;;;;;;4218201;34;20112;-63
2022/02/08 21:47:39;;;;;;;11.07;9.95;;;;;;;;;;4217713;34;20137;-63
2022/02/08 21:49:58;;;;;;;;;;;;;;;;;;4218077;34;20117;-63
2022/02/08 21:52:33;;;;;;;11.43;9.95;;;;;;;;;;4217212;33;19985;-63
2022/02/08 21:55:03;;;;;;;12.37;10.20;;;;;;;;;;4210357;34;20104;-63
2022/02/08 22:00:13;;;;;;;13.57;11.05;;;;;;;;;;4203869;34;20126;-63
2022/02/08 22:02:40;;;;;;;12.63;11.00;;;;;;;;;;4214994;34;20174;-63
2022/02/08 22:05:07;;;;;;;13.48;10.52;;;;;;;;;;4217816;34;20117;-63
2022/02/08 22:07:34;;;;;;;11.95;10.45;;;;;;;;;;4219757;34;20110;-64
2022/02/08 22:10:11;;;;;;;12.57;11.02;;;;;;;;;;4215433;34;20171;-63
2022/02/08 22:21:01;;;;;;;13.20;11.02;;;;;;;;;;4205632;34;20125;-62
2022/02/08 22:23:34;;;;;;;11.45;10.27;;;;;;;;;;4205958;34;20098;-62
2022/02/08 22:26:22;;;;;;;11.88;10.68;;;;;;;;;;4205748;34;20114;-62
2022/02/08 22:31:26;;;;;;;11.43;10.23;;;;;;;;;;4219694;34;20101;-64
2022/02/08 22:33:57;;;;;;;12.15;10.85;;;;;;;;;;4219704;34;20135;-63
2022/02/08 22:36:38;;;;;;;11.73;10.52;;;;;;;;;;4219526;34;20121;-63
2022/02/08 22:39:53;;;;;;;11.77;10.63;;;;;;;;;;4219647;34;20118;-63
2022/02/08 22:44:37;;;;;;;12.37;11.15;;;;;;;;;;4219665;34;20561;-63
2022/02/08 22:47:05;;;;;;;13.60;11.63;;;;;;;;;;4217982;34;20196;-63
2022/02/08 22:49:31;;;;;;;12.50;11.20;;;;;;;;;;4219617;34;20121;-63
2022/02/08 22:51:58;;;;;;;12.80;11.45;;;;;;;;;;4219518;34;20213;-63
2022/02/08 22:54:24;;;;;;;12.63;11.38;;;;;;;;;;4222283;33;20517;-64
2022/02/08 22:56:51;;;;;;;14.80;11.52;;;;;;;;;;4233771;33;20529;-64
2022/02/08 22:59:18;;;;;;;13.18;11.75;;;;;;;;;;4233510;33;20204;-64
2022/02/08 23:01:45;;;;;;;13.85;12.45;;;;;;;;;;4229696;33;20221;-63
2022/02/08 23:04:14;;;;;;;14.57;12.55;;;;;;;;;;4198730;34;20527;-64
2022/02/08 23:06:42;;;;;;;14.20;12.18;;;;;;;;;;4212168;34;20121;-64
2022/02/08 23:09:13;;;;;;;14.50;12.50;;;;;;;;;;4219350;34;20470;-64
2022/02/08 23:14:22;;;;;;;13.48;11.43;;;;;;;;;;4205571;34;20113;-62
2022/02/08 23:36:55;;;;;;;12.52;11.18;;;;;;;;;;4219175;34;20124;-63
2022/02/08 23:38:38;;;;;;;13.18;11.77;;;;;;;;;;4205337;34;20177;-63
2022/02/08 23:41:04;;;;;;;14.02;11.75;;;;;;;;;;4205189;34;20128;-64
2022/02/08 23:43:33;;;;;;;12.35;11.05;;;;;;;;;;4205309;34;20109;-64
2022/02/08 23:45:59;;;;;;;12.95;11.65;;;;;;;;;;4205001;34;20202;-63
2022/02/08 23:48:32;;;;;;;12.23;10.93;;;;;;;;;;4205223;34;20196;-63
2022/02/08 23:51:06;;;;;;;12.82;11.52;;;;;;;;;;4205064;34;20109;-63
